createdAt,value
2018-12-01T00:02:17.361Z,18.13
2018-12-01T00:04:44.285Z,18.03
2018-12-01T00:07:10.957Z,20.17
2018-12-01T00:09:37.659Z,16.73
2018-12-01T00:12:04.458Z,15.43
2018-12-01T00:14:31.888Z,16.60
2018-12-01T00:16:58.629Z,17.83
2018-12-01T00:19:26.174Z,17.23
2018-12-01T00:21:53.888Z,19.23
2018-12-01T00:24:21.372Z,15.10
2018-12-01T00:26:48.324Z,15.63
2018-12-01T00:29:15.097Z,18.23
2018-12-01T00:31:42.598Z,16.17
2018-12-01T00:34:10.226Z,14.70
2018-12-01T00:36:37.034Z,14.03
2018-12-01T00:39:03.869Z,14.30
2018-12-01T00:41:30.626Z,15.27
2018-12-01T00:43:57.329Z,13.80
2018-12-01T00:46:24.042Z,14.97
2018-12-01T00:48:51.613Z,15.63
2018-12-01T00:51:25.911Z,14.23
2018-12-01T00:53:52.650Z,16.23
2018-12-01T00:56:19.457Z,13.37
2018-12-01T00:58:46.166Z,12.63
2018-12-01T01:01:12.925Z,13.73
2018-12-01T01:03:39.636Z,13.13
2018-12-01T01:06:07.184Z,13.13
2018-12-01T01:08:35.491Z,12.07
2018-12-01T01:11:02.396Z,12.50
2018-12-01T01:13:29.943Z,12.73
2018-12-01T01:15:56.671Z,11.60
2018-12-01T01:18:25.232Z,11.87
2018-12-01T01:20:52.165Z,11.10
2018-12-01T01:23:18.862Z,12.63
2018-12-01T01:25:46.561Z,13.47
2018-12-01T01:28:14.039Z,11.80
2018-12-01T01:30:40.714Z,13.70
2018-12-01T01:33:22.349Z,12.07
2018-12-01T01:35:49.094Z,13.97
2018-12-01T01:38:15.792Z,13.70
2018-12-01T01:40:42.536Z,13.33
2018-12-01T01:43:09.240Z,11.90
2018-12-01T01:45:36.442Z,12.40
2018-12-01T01:48:04.384Z,13.93
2018-12-01T01:50:31.198Z,14.20
2018-12-01T01:52:58.084Z,12.23
2018-12-01T01:55:25.247Z,11.67
2018-12-01T01:57:52.687Z,12.10
2018-12-01T02:00:19.540Z,13.97
2018-12-01T02:02:47.005Z,11.97
2018-12-01T02:05:14.662Z,11.60
2018-12-01T02:07:42.159Z,12.27
2018-12-01T02:10:09.021Z,11.83
2018-12-01T02:12:36.060Z,14.00
2018-12-01T02:15:02.849Z,11.83
2018-12-01T02:17:30.351Z,12.80
2018-12-01T02:19:57.131Z,12.47
2018-12-01T02:22:24.668Z,13.10
2018-12-01T02:24:51.425Z,13.73
2018-12-01T02:27:18.225Z,12.80
2018-12-01T02:29:45.405Z,14.00
2018-12-01T02:32:12.166Z,12.50
2018-12-01T02:34:38.901Z,13.07
2018-12-01T02:37:06.120Z,14.67
2018-12-01T02:39:33.225Z,12.93
2018-12-01T02:42:00.702Z,13.70
2018-12-01T02:44:37.305Z,13.90
2018-12-01T02:47:04.106Z,14.80
2018-12-01T02:49:31.546Z,15.63
2018-12-01T02:51:58.251Z,14.83
2018-12-01T02:54:25.048Z,12.03
2018-12-01T02:56:52.467Z,11.70
2018-12-01T02:59:19.172Z,11.43
2018-12-01T03:01:46.733Z,11.87
2018-12-01T03:04:13.472Z,12.97
2018-12-01T03:06:41.634Z,11.00
2018-12-01T03:09:08.493Z,10.27
2018-12-01T03:11:35.300Z,11.73
2018-12-01T03:14:02.067Z,10.43
2018-12-01T03:16:28.901Z,12.57
2018-12-01T03:18:55.611Z,11.10
2018-12-01T03:21:22.365Z,9.70
2018-12-01T03:23:49.864Z,9.50
2018-12-01T03:26:16.673Z,9.90
2018-12-01T03:28:43.698Z,9.27
2018-12-01T03:31:10.410Z,9.73
2018-12-01T03:33:37.222Z,9.13
2018-12-01T03:36:04.648Z,9.70
2018-12-01T03:38:32.073Z,9.93
2018-12-01T03:40:58.820Z,9.60
2018-12-01T03:43:26.418Z,9.57
2018-12-01T03:45:53.178Z,9.70
2018-12-01T03:48:19.866Z,9.90
2018-12-01T03:50:46.722Z,10.33
2018-12-01T03:53:13.525Z,9.93
2018-12-01T03:55:40.965Z,10.00
2018-12-01T03:58:07.764Z,9.57
2018-12-01T04:00:34.667Z,9.93
2018-12-01T04:03:01.450Z,9.10
2018-12-01T04:05:28.340Z,8.97
2018-12-01T04:07:55.125Z,9.17
2018-12-01T04:10:21.910Z,10.07
2018-12-01T04:12:48.625Z,9.43
2018-12-01T04:15:15.556Z,10.10
2018-12-01T04:17:43.007Z,8.30
2018-12-01T04:20:09.721Z,8.80
2018-12-01T04:22:37.293Z,9.50
2018-12-01T04:25:04.039Z,9.40
2018-12-01T04:27:30.856Z,9.97
2018-12-01T04:29:57.642Z,9.87
2018-12-01T04:32:25.099Z,10.90
2018-12-01T04:34:52.691Z,10.67
2018-12-01T04:37:19.549Z,10.87
2018-12-01T04:39:46.556Z,10.37
2018-12-01T04:42:14.023Z,9.73
2018-12-01T04:44:40.712Z,10.97
2018-12-01T04:47:07.412Z,10.30
2018-12-01T04:49:34.314Z,11.73
2018-12-01T04:52:01.021Z,11.87
2018-12-01T04:54:27.757Z,11.03
2018-12-01T04:56:54.541Z,12.73
2018-12-01T04:59:21.208Z,12.10
2018-12-01T05:01:47.901Z,12.27
2018-12-01T05:04:14.645Z,12.33
2018-12-01T05:06:42.026Z,12.17
2018-12-01T05:09:09.576Z,12.97
2018-12-01T05:11:36.395Z,12.57
2018-12-01T05:14:03.173Z,13.53
2018-12-01T05:16:31.294Z,11.97
2018-12-01T05:18:57.953Z,12.63
2018-12-01T05:21:24.667Z,12.37
2018-12-01T05:23:51.414Z,12.63
2018-12-01T05:26:18.607Z,12.63
2018-12-01T05:28:45.446Z,12.73
2018-12-01T05:31:12.210Z,10.67
2018-12-01T05:33:39.210Z,12.20
2018-12-01T05:36:06.032Z,11.63
2018-12-01T05:38:32.747Z,11.60
2018-12-01T05:41:00.213Z,10.63
2018-12-01T05:43:26.936Z,10.50
2018-12-01T05:45:54.510Z,10.97
2018-12-01T05:48:21.551Z,10.33
2018-12-01T05:50:48.244Z,9.40
2018-12-01T05:53:15.051Z,9.33
2018-12-01T05:55:42.193Z,9.13
2018-12-01T05:58:09.082Z,8.60
2018-12-01T06:00:35.923Z,9.10
2018-12-01T06:03:02.643Z,8.57
2018-12-01T06:05:29.323Z,8.60
2018-12-01T06:07:56.137Z,8.57
2018-12-01T06:10:23.786Z,8.20
2018-12-01T06:12:51.269Z,8.70
2018-12-01T06:15:18.456Z,8.13
2018-12-01T06:17:45.225Z,8.87
2018-12-01T06:20:11.923Z,8.60
2018-12-01T06:22:39.448Z,10.40
2018-12-01T06:25:07.785Z,9.13
2018-12-01T06:27:34.451Z,8.87
2018-12-01T06:30:01.150Z,9.83
2018-12-01T06:32:27.892Z,9.67
2018-12-01T06:34:54.563Z,9.27
2018-12-01T06:37:21.443Z,11.37
2018-12-01T06:39:48.206Z,11.70
2018-12-01T06:42:15.665Z,12.57
2018-12-01T06:44:43.093Z,12.87
2018-12-01T06:47:09.899Z,13.73
2018-12-01T06:49:36.693Z,14.07
2018-12-01T06:52:04.131Z,15.37
2018-12-01T06:54:30.959Z,15.90
2018-12-01T06:56:57.652Z,16.23
2018-12-01T06:59:25.102Z,16.60
2018-12-01T07:01:52.639Z,18.17
2018-12-01T07:04:19.316Z,18.20
2018-12-01T07:06:46.012Z,19.73
2018-12-01T07:09:12.746Z,21.23
2018-12-01T07:11:39.485Z,19.87
2018-12-01T07:14:06.261Z,20.00
2018-12-01T07:16:33.746Z,23.63
2018-12-01T07:19:01.261Z,22.57
2018-12-01T07:21:27.958Z,24.30
2018-12-01T07:23:54.716Z,26.53
2018-12-01T07:26:21.528Z,32.93
2018-12-01T07:28:48.233Z,28.63
2018-12-01T07:31:15.777Z,32.87
2018-12-01T07:33:43.142Z,27.87
2018-12-01T07:36:11.542Z,24.50
2018-12-01T07:38:38.569Z,23.60
2018-12-01T07:41:06.400Z,25.93
2018-12-01T07:43:33.941Z,25.07
2018-12-01T07:46:00.649Z,24.90
2018-12-01T07:48:28.072Z,25.43
2018-12-01T07:50:54.884Z,22.27
2018-12-01T07:53:21.658Z,21.07
2018-12-01T07:55:48.334Z,22.03
2018-12-01T07:58:15.739Z,19.60
2018-12-01T08:00:42.456Z,19.27
2018-12-01T08:03:09.194Z,22.43
2018-12-01T08:05:36.256Z,18.70
2018-12-01T08:08:03.082Z,19.67
2018-12-01T08:10:29.967Z,20.93
2018-12-01T08:12:56.864Z,21.87
2018-12-01T08:15:24.075Z,20.40
2018-12-01T08:17:50.514Z,19.20
2018-12-01T08:20:17.266Z,16.37
2018-12-01T08:22:44.060Z,17.70
2018-12-01T08:25:11.591Z,17.10
2018-12-01T08:27:39.179Z,15.63
2018-12-01T08:30:06.124Z,15.57
2018-12-01T08:32:32.835Z,17.40
2018-12-01T08:34:59.713Z,14.80
2018-12-01T08:37:27.234Z,14.03
2018-12-01T08:39:53.907Z,13.57
2018-12-01T08:42:20.665Z,13.30
2018-12-01T08:44:47.346Z,13.33
2018-12-01T08:47:14.478Z,11.83
2018-12-01T08:49:41.306Z,12.23
2018-12-01T08:52:08.823Z,12.73
2018-12-01T08:54:35.633Z,13.30
2018-12-01T08:57:02.384Z,11.93
2018-12-01T08:59:29.141Z,11.57
2018-12-01T09:01:55.990Z,11.90
2018-12-01T09:04:22.791Z,11.60
2018-12-01T09:06:50.287Z,11.07
2018-12-01T09:09:17.211Z,11.03
2018-12-01T09:11:44.818Z,12.30
2018-12-01T09:14:11.560Z,11.33
2018-12-01T09:16:38.375Z,11.33
2018-12-01T09:19:05.157Z,10.93
2018-12-01T09:21:32.635Z,10.80
2018-12-01T09:23:59.895Z,10.93
2018-12-01T09:26:27.288Z,11.03
2018-12-01T09:28:55.496Z,10.47
2018-12-01T09:31:23.616Z,10.70
2018-12-01T09:33:50.856Z,11.27
2018-12-01T09:36:17.741Z,10.60
2018-12-01T09:38:45.384Z,12.30
2018-12-01T09:41:12.388Z,9.27
2018-12-01T09:43:39.846Z,10.13
2018-12-01T09:46:07.457Z,10.23
2018-12-01T09:48:34.214Z,10.63
2018-12-01T09:51:01.260Z,9.63
2018-12-01T09:53:29.699Z,11.17
2018-12-01T09:55:56.506Z,10.67
2018-12-01T09:58:24.331Z,10.97
2018-12-01T10:00:52.103Z,10.03
2018-12-01T10:03:19.292Z,10.53
2018-12-01T10:05:48.425Z,10.73
2018-12-01T10:08:16.453Z,11.80
2018-12-01T10:10:43.348Z,11.67
2018-12-01T10:13:10.461Z,10.60
2018-12-01T10:15:38.256Z,9.53
2018-12-01T10:18:05.898Z,10.00
2018-12-01T10:20:33.805Z,9.57
2018-12-01T10:23:00.740Z,10.23
2018-12-01T10:25:27.527Z,9.50
2018-12-01T10:27:54.635Z,10.30
2018-12-01T10:30:21.743Z,9.93
2018-12-01T10:32:49.285Z,10.60
2018-12-01T10:35:16.058Z,9.80
2018-12-01T10:37:42.954Z,10.20
2018-12-01T10:40:09.762Z,10.33
2018-12-01T10:42:36.615Z,9.30
2018-12-01T10:45:03.447Z,9.90
2018-12-01T10:47:30.446Z,9.90
2018-12-01T10:49:58.148Z,9.60
2018-12-01T10:52:25.792Z,9.23
2018-12-01T10:54:53.378Z,9.37
2018-12-01T10:57:20.333Z,8.80
2018-12-01T10:59:47.308Z,8.63
2018-12-01T11:02:14.098Z,8.27
2018-12-01T11:04:41.130Z,7.67
2018-12-01T11:07:08.824Z,7.37
2018-12-01T11:09:35.730Z,8.27
2018-12-01T11:12:02.667Z,7.70
2018-12-01T11:14:29.576Z,6.83
2018-12-01T11:16:56.561Z,7.60
2018-12-01T11:19:23.328Z,7.57
2018-12-01T11:21:50.297Z,7.20
2018-12-01T11:24:17.557Z,6.67
2018-12-01T11:26:44.357Z,6.80
2018-12-01T11:29:11.115Z,6.57
2018-12-01T11:31:38.202Z,7.13
2018-12-01T11:34:05.233Z,6.00
2018-12-01T11:36:32.964Z,6.10
2018-12-01T11:39:00.753Z,6.23
2018-12-01T11:41:27.634Z,6.70
2018-12-01T11:43:55.412Z,6.40
2018-12-01T11:46:23.070Z,6.60
2018-12-01T11:48:50.022Z,5.53
2018-12-01T11:51:17.054Z,6.57
2018-12-01T11:53:44.613Z,6.00
2018-12-01T11:56:11.654Z,6.57
2018-12-01T11:58:38.571Z,5.83
2018-12-01T12:01:05.408Z,6.20
2018-12-01T12:03:32.397Z,6.53
2018-12-01T12:06:00.128Z,6.33
2018-12-01T12:08:27.289Z,6.20
2018-12-01T12:10:54.171Z,6.13
2018-12-01T12:13:21.955Z,6.10
2018-12-01T12:15:48.806Z,6.40
2018-12-01T12:18:15.554Z,6.60
2018-12-01T12:20:42.257Z,6.60
2018-12-01T12:23:09.039Z,7.00
2018-12-01T12:25:35.829Z,6.80
2018-12-01T12:28:02.597Z,7.27
2018-12-01T12:30:29.322Z,6.80
2018-12-01T12:32:56.881Z,7.37
2018-12-01T12:35:23.608Z,6.90
2018-12-01T12:37:50.294Z,7.20
2018-12-01T12:40:17.063Z,7.43
2018-12-01T12:42:43.759Z,7.03
2018-12-01T12:45:11.267Z,6.87
2018-12-01T12:47:38.083Z,7.83
2018-12-01T12:50:04.827Z,8.07
2018-12-01T12:52:31.652Z,6.83
2018-12-01T12:54:58.421Z,7.37
2018-12-01T12:57:25.122Z,7.47
2018-12-01T12:59:52.574Z,7.33
2018-12-01T13:02:19.357Z,7.20
2018-12-01T13:04:46.045Z,8.30
2018-12-01T13:07:14.308Z,8.23
2018-12-01T13:09:41.780Z,8.30
2018-12-01T13:12:09.214Z,8.57
2018-12-01T13:14:35.913Z,8.77
2018-12-01T13:17:03.473Z,8.97
2018-12-01T13:19:30.172Z,9.67
2018-12-01T13:21:57.723Z,9.10
2018-12-01T13:24:25.141Z,9.77
2018-12-01T13:26:51.904Z,10.00
2018-12-01T13:29:18.698Z,10.53
2018-12-01T13:31:45.463Z,11.00
2018-12-01T13:34:12.205Z,10.40
2018-12-01T13:36:38.939Z,12.27
2018-12-01T13:39:06.483Z,12.07
2018-12-01T13:41:33.283Z,11.53
2018-12-01T13:44:00.027Z,11.43
2018-12-01T13:46:26.734Z,12.10
2018-12-01T13:48:53.493Z,11.70
2018-12-01T13:51:20.265Z,12.57
2018-12-01T13:53:47.034Z,13.30
2018-12-01T13:56:13.784Z,13.97
2018-12-01T13:58:40.452Z,14.47
2018-12-01T14:01:07.201Z,14.07
2018-12-01T14:03:33.961Z,14.53
2018-12-01T14:06:01.419Z,13.07
2018-12-01T14:08:28.231Z,12.83
2018-12-01T14:10:55.025Z,12.17
2018-12-01T14:13:21.737Z,12.70
2018-12-01T14:15:49.198Z,13.93
2018-12-01T14:18:15.967Z,13.37
2018-12-01T14:20:42.691Z,12.90
2018-12-01T14:23:10.179Z,15.43
2018-12-01T14:25:36.896Z,14.40
2018-12-01T14:28:03.773Z,15.57
2018-12-01T14:30:30.581Z,15.87
2018-12-01T14:32:57.303Z,16.57
2018-12-01T14:35:24.743Z,18.30
2018-12-01T14:37:51.455Z,18.93
2018-12-01T14:40:18.169Z,17.97
2018-12-01T14:42:44.854Z,19.27
2018-12-01T14:45:11.592Z,16.07
2018-12-01T14:47:38.292Z,17.53
2018-12-01T14:50:05.224Z,18.93
2018-12-01T14:52:31.900Z,16.37
2018-12-01T14:54:58.699Z,18.30
2018-12-01T14:57:25.428Z,18.87
2018-12-01T14:59:52.926Z,19.40
2018-12-01T15:02:19.633Z,19.20
2018-12-01T15:04:46.323Z,18.03
2018-12-01T15:07:13.075Z,18.90
2018-12-01T15:09:39.751Z,17.50
2018-12-01T15:12:06.509Z,20.50
2018-12-01T15:14:33.255Z,18.77
2018-12-01T15:16:59.968Z,20.33
2018-12-01T15:19:26.792Z,20.57
2018-12-01T15:21:53.514Z,20.07
2018-12-01T15:24:20.204Z,19.83
2018-12-01T15:26:46.961Z,19.07
2018-12-01T15:29:13.697Z,19.20
2018-12-01T15:31:40.391Z,18.47
2018-12-01T15:34:07.154Z,18.33
2018-12-01T15:36:34.601Z,17.77
2018-12-01T15:39:02.138Z,16.53
2018-12-01T15:41:28.939Z,14.87
2018-12-01T15:43:55.700Z,17.07
2018-12-01T15:46:22.451Z,16.43
2018-12-01T15:48:51.713Z,15.70
2018-12-01T15:51:18.693Z,17.57
2018-12-01T15:53:45.387Z,16.10
2018-12-01T15:56:12.117Z,16.53
2018-12-01T15:58:39.557Z,17.83
2018-12-01T16:01:07.033Z,14.87
2018-12-01T16:03:33.845Z,18.60
2018-12-01T16:06:00.567Z,16.73
2018-12-01T16:08:27.345Z,17.67
2018-12-01T16:10:54.911Z,16.70
2018-12-01T16:13:22.341Z,21.30
2018-12-01T16:15:49.149Z,18.47
2018-12-01T16:18:15.872Z,17.70
2018-12-01T16:20:42.641Z,15.50
2018-12-01T16:23:09.419Z,16.07
2018-12-01T16:25:36.191Z,15.10
2018-12-01T16:28:02.899Z,18.53
2018-12-01T16:30:29.622Z,16.23
2018-12-01T16:32:56.295Z,19.17
2018-12-01T16:35:23.809Z,18.13
2018-12-01T16:37:51.349Z,19.77
2018-12-01T16:40:18.088Z,20.73
2018-12-01T16:42:44.818Z,18.30
2018-12-01T16:45:11.610Z,20.63
2018-12-01T16:47:39.319Z,22.97
2018-12-01T16:50:06.329Z,21.17
2018-12-01T16:52:33.139Z,20.67
2018-12-01T16:54:59.904Z,23.23
2018-12-01T16:57:26.662Z,21.47
2018-12-01T16:59:54.124Z,21.00
2018-12-01T17:02:21.600Z,20.80
2018-12-01T17:04:48.259Z,25.70
2018-12-01T17:07:15.057Z,19.23
2018-12-01T17:09:42.556Z,18.30
2018-12-01T17:12:09.238Z,18.33
2018-12-01T17:14:36.565Z,19.17
2018-12-01T17:17:03.322Z,18.43
2018-12-01T17:19:30.355Z,21.07
2018-12-01T17:21:57.439Z,19.77
2018-12-01T17:24:24.891Z,19.57
2018-12-01T17:26:52.866Z,18.83
2018-12-01T17:29:20.388Z,20.60
2018-12-01T17:31:47.122Z,18.40
2018-12-01T17:34:14.314Z,20.97
2018-12-01T17:36:41.085Z,18.10
2018-12-01T17:39:07.833Z,19.57
2018-12-01T17:41:34.730Z,18.43
2018-12-01T17:44:02.262Z,21.87
2018-12-01T17:46:29.038Z,18.10
2018-12-01T17:48:57.197Z,17.83
2018-12-01T17:51:23.901Z,20.93
2018-12-01T17:53:54.034Z,20.20
2018-12-01T17:56:20.824Z,18.73
2018-12-01T17:58:48.362Z,20.63
2018-12-01T18:01:15.074Z,19.60
2018-12-01T18:03:42.439Z,18.10
2018-12-01T18:06:09.161Z,21.63
2018-12-01T18:08:36.315Z,19.03
2018-12-01T18:11:03.208Z,22.07
2018-12-01T18:13:30.676Z,20.63
2018-12-01T18:15:58.667Z,18.43
2018-12-01T18:18:25.450Z,22.43
2018-12-01T18:20:52.155Z,18.47
2018-12-01T18:23:18.984Z,18.30
2018-12-01T18:25:45.757Z,18.57
2018-12-01T18:28:12.465Z,19.00
2018-12-01T18:30:39.167Z,22.10
2018-12-01T18:33:05.915Z,20.07
2018-12-01T18:35:33.812Z,22.87
2018-12-01T18:38:00.520Z,18.63
2018-12-01T18:40:28.098Z,17.33
2018-12-01T18:42:55.514Z,21.60
2018-12-01T18:45:22.300Z,19.40
2018-12-01T18:47:49.097Z,22.30
2018-12-01T18:50:15.832Z,22.43
2018-12-01T18:52:42.531Z,21.73
2018-12-01T18:55:09.325Z,23.30
2018-12-01T18:57:36.245Z,21.30
2018-12-01T19:00:02.990Z,24.70
2018-12-01T19:02:29.741Z,20.63
2018-12-01T19:04:56.448Z,25.00
2018-12-01T19:07:23.143Z,25.90
2018-12-01T19:09:50.663Z,23.23
2018-12-01T19:12:17.361Z,24.07
2018-12-01T19:14:44.819Z,22.00
2018-12-01T19:17:12.333Z,25.10
2018-12-01T19:19:38.997Z,21.33
2018-12-01T19:22:05.762Z,23.43
2018-12-01T19:24:32.570Z,23.90
2018-12-01T19:27:00.037Z,21.90
2018-12-01T19:29:27.537Z,21.97
2018-12-01T19:31:54.295Z,20.13
2018-12-01T19:34:21.033Z,25.50
2018-12-01T19:36:47.812Z,23.77
2018-12-01T19:39:15.318Z,23.33
2018-12-01T19:41:42.049Z,21.73
2018-12-01T19:44:08.753Z,21.27
2018-12-01T19:46:35.992Z,21.07
2018-12-01T19:49:03.497Z,23.53
2018-12-01T19:51:30.196Z,23.47
2018-12-01T19:53:57.250Z,20.27
2018-12-01T19:56:23.924Z,21.20
2018-12-01T19:58:50.630Z,22.63
2018-12-01T20:01:17.356Z,23.00
2018-12-01T20:03:44.070Z,23.60
2018-12-01T20:06:10.949Z,22.43
2018-12-01T20:08:37.747Z,23.40
2018-12-01T20:11:04.487Z,23.80
2018-12-01T20:13:31.210Z,21.03
2018-12-01T20:15:58.015Z,25.63
2018-12-01T20:18:24.740Z,23.27
2018-12-01T20:20:52.678Z,23.67
2018-12-01T20:23:19.577Z,22.90
2018-12-01T20:25:46.387Z,23.03
2018-12-01T20:28:13.118Z,27.90
2018-12-01T20:30:39.894Z,23.67
2018-12-01T20:33:06.605Z,23.43
2018-12-01T20:35:33.901Z,24.77
2018-12-01T20:38:00.793Z,22.20
2018-12-01T20:40:28.483Z,25.87
2018-12-01T20:42:55.178Z,24.27
2018-12-01T20:45:22.144Z,25.50
2018-12-01T20:47:49.605Z,23.73
2018-12-01T20:50:31.442Z,27.90
2018-12-01T20:52:58.864Z,28.13
2018-12-01T20:55:25.604Z,27.43
2018-12-01T20:57:52.421Z,28.97
2018-12-01T21:00:19.162Z,27.80
2018-12-01T21:02:45.949Z,26.57
2018-12-01T21:05:13.451Z,29.23
2018-12-01T21:07:40.251Z,28.57
2018-12-01T21:10:07.041Z,27.37
2018-12-01T21:12:33.767Z,33.43
2018-12-01T21:15:01.107Z,36.50
2018-12-01T21:17:27.845Z,29.87
2018-12-01T21:19:54.644Z,36.57
2018-12-01T21:22:21.813Z,28.97
2018-12-01T21:24:48.533Z,31.60
2018-12-01T21:27:16.058Z,30.50
2018-12-01T21:29:57.841Z,26.27
2018-12-01T21:32:24.618Z,28.23
2018-12-01T21:34:51.446Z,30.70
2018-12-01T21:37:18.142Z,28.80
2018-12-01T21:39:45.664Z,36.70
2018-12-01T21:42:12.484Z,31.83
2018-12-01T21:44:39.379Z,32.70
2018-12-01T21:47:06.279Z,30.43
2018-12-01T21:49:33.047Z,32.40
2018-12-01T21:51:59.785Z,24.83
2018-12-01T21:54:26.799Z,28.50
2018-12-01T21:56:53.530Z,29.73
2018-12-01T21:59:20.299Z,31.77
2018-12-01T22:01:46.994Z,29.23
2018-12-01T22:04:13.721Z,31.23
2018-12-01T22:06:41.217Z,29.93
2018-12-01T22:09:07.961Z,31.93
2018-12-01T22:11:35.007Z,35.70
2018-12-01T22:16:35.039Z,36.03
2018-12-01T22:19:02.278Z,32.90
2018-12-01T22:21:29.012Z,35.87
2018-12-01T22:23:56.434Z,32.23
2018-12-01T22:26:23.246Z,34.93
2018-12-01T22:28:50.582Z,31.60
2018-12-01T22:31:17.319Z,35.47
2018-12-01T22:33:44.091Z,38.90
2018-12-01T22:36:11.023Z,37.87
2018-12-01T22:38:38.728Z,33.83
2018-12-01T22:41:06.266Z,35.33
2018-12-01T22:43:33.009Z,31.90
2018-12-01T22:45:59.814Z,37.53
2018-12-01T22:48:26.491Z,34.57
2018-12-01T22:50:53.359Z,36.30
2018-12-01T22:53:20.797Z,40.07
2018-12-01T22:55:47.520Z,33.43
2018-12-01T22:58:14.333Z,31.47
2018-12-01T23:00:41.116Z,28.37
2018-12-01T23:03:08.215Z,35.20
2018-12-01T23:05:35.072Z,30.10
2018-12-01T23:08:01.794Z,27.60
2018-12-01T23:10:29.009Z,31.17
2018-12-01T23:12:55.872Z,26.20
2018-12-01T23:15:23.346Z,27.83
2018-12-01T23:17:50.100Z,25.77
2018-12-01T23:20:17.251Z,25.90
2018-12-01T23:22:44.013Z,26.30
2018-12-01T23:25:10.831Z,25.53
2018-12-01T23:27:37.606Z,24.10
2018-12-01T23:30:05.147Z,22.60
2018-12-01T23:32:32.129Z,25.77
2018-12-01T23:34:58.846Z,24.30
2018-12-01T23:37:25.589Z,23.83
2018-12-01T23:39:52.370Z,28.03
2018-12-01T23:42:19.789Z,22.73
2018-12-01T23:44:47.028Z,23.97
2018-12-01T23:47:13.833Z,21.53
2018-12-01T23:49:40.571Z,21.07
2018-12-01T23:52:08.159Z,19.80
2018-12-01T23:54:34.885Z,17.07
2018-12-01T23:57:01.631Z,16.63
2018-12-01T23:59:28.433Z,13.73
